createdAt,value
2019-03-06T00:00:18.389Z,4.40
2019-03-06T00:05:14.504Z,4.50
2019-03-06T00:10:23.324Z,4.53
2019-03-06T00:15:19.334Z,3.80
2019-03-06T00:20:19.302Z,4.50
2019-03-06T00:25:15.429Z,5.03
2019-03-06T00:30:15.901Z,4.20
2019-03-06T00:35:20.792Z,4.77
2019-03-06T00:40:18.801Z,5.27
2019-03-06T00:45:14.828Z,5.30
2019-03-06T00:50:11.843Z,4.57
2019-03-06T00:55:09.881Z,5.40
2019-03-06T01:00:12.379Z,4.60
2019-03-06T01:05:09.511Z,5.30
2019-03-06T01:10:13.249Z,5.77
2019-03-06T01:15:10.161Z,5.23
2019-03-06T01:20:17.282Z,5.17
2019-03-06T01:25:15.310Z,5.37
2019-03-06T01:30:15.036Z,4.77
2019-03-06T01:35:18.619Z,5.03
2019-03-06T01:40:19.188Z,4.80
2019-03-06T01:45:15.185Z,4.33
2019-03-06T01:50:11.970Z,4.47
2019-03-06T01:55:10.697Z,4.60
2019-03-06T02:00:10.437Z,4.93
2019-03-06T02:05:09.251Z,4.70
2019-03-06T02:10:08.323Z,4.87
2019-03-06T02:15:08.040Z,3.90
2019-03-06T02:20:11.681Z,3.80
2019-03-06T02:25:07.612Z,4.07
2019-03-06T02:30:12.944Z,4.00
2019-03-06T02:35:08.996Z,4.00
2019-03-06T02:40:07.816Z,4.17
2019-03-06T02:45:10.291Z,3.80
2019-03-06T02:50:10.202Z,3.83
2019-03-06T02:55:08.529Z,4.17
2019-03-06T03:00:13.179Z,4.73
2019-03-06T03:05:14.197Z,3.53
2019-03-06T03:10:10.405Z,3.23
2019-03-06T03:15:08.221Z,3.50
2019-03-06T03:20:10.840Z,4.80
2019-03-06T03:25:06.951Z,3.30
2019-03-06T03:30:09.309Z,4.10
2019-03-06T03:35:05.339Z,3.00
2019-03-06T03:40:01.754Z,3.10
2019-03-06T03:44:57.861Z,3.83
2019-03-06T03:49:55.143Z,3.27
2019-03-06T03:54:51.236Z,3.63
2019-03-06T03:59:47.154Z,4.27
2019-03-06T04:04:43.064Z,3.63
2019-03-06T04:09:39.004Z,3.57
2019-03-06T04:14:34.912Z,3.10
2019-03-06T04:19:30.834Z,3.43
2019-03-06T04:24:26.756Z,3.80
2019-03-06T04:29:22.741Z,4.73
2019-03-06T04:34:18.665Z,5.10
2019-03-06T04:39:14.588Z,4.90
2019-03-06T04:44:10.498Z,5.63
2019-03-06T04:49:06.419Z,6.20
2019-03-06T04:54:02.636Z,5.70
2019-03-06T04:59:01.388Z,6.87
2019-03-06T05:03:57.394Z,7.40
2019-03-06T05:08:53.329Z,7.13
2019-03-06T05:13:49.239Z,8.40
2019-03-06T05:18:47.060Z,7.93
2019-03-06T05:23:42.966Z,8.77
2019-03-06T05:28:38.888Z,8.70
2019-03-06T05:33:35.098Z,8.90
2019-03-06T05:38:43.846Z,9.60
2019-03-06T05:43:39.762Z,10.10
2019-03-06T05:48:35.679Z,10.23
2019-03-06T05:53:31.581Z,9.90
2019-03-06T05:58:27.491Z,11.00
2019-03-06T06:03:23.399Z,10.90
2019-03-06T06:08:19.315Z,11.50
2019-03-06T06:13:15.222Z,11.30
2019-03-06T06:18:11.107Z,9.90
2019-03-06T06:23:25.448Z,10.53
2019-03-06T06:28:21.354Z,11.70
2019-03-06T06:33:17.314Z,11.33
2019-03-06T06:38:13.267Z,12.13
2019-03-06T06:43:09.172Z,12.20
2019-03-06T06:48:13.383Z,12.60
2019-03-06T06:53:31.199Z,12.97
2019-03-06T06:58:40.278Z,13.40
2019-03-06T07:04:14.274Z,14.60
2019-03-06T07:09:14.909Z,14.13
2019-03-06T07:14:15.501Z,14.93
2019-03-06T07:19:15.827Z,14.40
2019-03-06T07:24:17.339Z,14.70
2019-03-06T07:29:15.137Z,15.13
2019-03-06T07:34:13.055Z,14.70
2019-03-06T07:39:13.931Z,15.50
2019-03-06T07:44:30.490Z,14.53
2019-03-06T07:49:44.817Z,16.17
2019-03-06T07:54:36.902Z,15.40
2019-03-06T07:59:32.789Z,13.97
2019-03-06T08:04:28.816Z,15.53
2019-03-06T08:09:24.832Z,13.67
2019-03-06T08:14:22.663Z,14.37
2019-03-06T08:24:37.129Z,13.97
2019-03-06T08:29:33.058Z,13.33
2019-03-06T08:34:29.005Z,13.50
2019-03-06T08:39:24.953Z,13.20
2019-03-06T08:44:20.870Z,12.23
2019-03-06T08:49:30.434Z,11.70
2019-03-06T08:54:37.332Z,11.70
2019-03-06T08:59:50.811Z,10.23
2019-03-06T09:04:48.745Z,10.40
2019-03-06T09:09:46.584Z,9.37
2019-03-06T09:14:47.357Z,10.30
2019-03-06T09:25:01.773Z,9.40
2019-03-06T09:30:15.779Z,9.20
2019-03-06T09:35:26.768Z,9.00
2019-03-06T09:40:27.432Z,9.20
2019-03-06T09:45:32.961Z,8.60
2019-03-06T09:50:48.684Z,8.83
2019-03-06T09:55:51.437Z,8.20
2019-03-06T10:01:05.563Z,7.47
2019-03-06T10:06:16.301Z,6.83
2019-03-06T10:16:23.215Z,6.40
2019-03-06T10:21:19.342Z,5.83
2019-03-06T10:26:15.354Z,5.83
2019-03-06T10:31:11.282Z,5.30
2019-03-06T10:36:07.199Z,6.60
2019-03-06T10:41:03.215Z,4.53
2019-03-06T10:45:59.221Z,4.40
2019-03-06T10:50:55.862Z,4.37
2019-03-06T10:55:52.047Z,3.93
2019-03-06T11:00:52.541Z,4.60
2019-03-06T11:05:48.593Z,4.50
2019-03-06T11:10:44.704Z,3.73
2019-03-06T11:15:40.814Z,3.40
2019-03-06T11:20:37.554Z,3.40
2019-03-06T11:25:34.226Z,3.00
2019-03-06T11:30:48.959Z,3.20
2019-03-06T11:35:45.574Z,2.47
2019-03-06T11:40:41.855Z,2.97
2019-03-06T11:45:38.903Z,1.83
2019-03-06T11:50:40.947Z,2.20
2019-03-06T11:55:34.054Z,1.70
2019-03-06T12:00:31.974Z,1.93
2019-03-06T12:05:28.098Z,2.10
2019-03-06T12:10:24.903Z,1.73
2019-03-06T12:15:21.040Z,1.70
2019-03-06T12:20:25.531Z,1.67
2019-03-06T12:25:21.664Z,1.30
2019-03-06T12:30:17.983Z,2.07
2019-03-06T12:35:15.497Z,1.43
2019-03-06T12:40:14.924Z,1.43
2019-03-06T12:45:15.762Z,1.93
2019-03-06T12:50:15.963Z,2.23
2019-03-06T12:55:12.081Z,2.10
2019-03-06T13:00:16.156Z,1.70
2019-03-06T13:05:12.253Z,2.13
2019-03-06T13:10:10.668Z,1.97
2019-03-06T13:15:10.223Z,2.67
2019-03-06T13:20:09.637Z,2.07
2019-03-06T13:25:08.985Z,1.73
2019-03-06T13:30:12.274Z,1.93
2019-03-06T13:35:10.075Z,2.17
2019-03-06T13:40:06.693Z,1.70
2019-03-06T13:45:07.673Z,2.30
2019-03-06T13:50:07.559Z,1.77
2019-03-06T13:55:10.006Z,2.40
2019-03-06T14:00:10.151Z,1.80
2019-03-06T14:05:07.366Z,1.50
2019-03-06T14:10:06.263Z,1.80
2019-03-06T14:15:04.587Z,1.80
2019-03-06T14:20:01.092Z,1.63
2019-03-06T14:24:57.007Z,2.53
2019-03-06T14:29:52.935Z,2.20
2019-03-06T14:34:49.663Z,1.27
2019-03-06T14:39:45.757Z,2.07
2019-03-06T14:44:41.763Z,2.07
2019-03-06T14:49:37.669Z,1.93
2019-03-06T14:54:33.577Z,1.57
2019-03-06T14:59:29.585Z,1.90
2019-03-06T15:04:25.518Z,1.47
2019-03-06T15:09:23.413Z,2.10
2019-03-06T15:14:19.328Z,2.07
2019-03-06T15:19:15.259Z,2.03
2019-03-06T15:24:11.165Z,2.07
2019-03-06T15:29:07.114Z,1.60
2019-03-06T15:34:03.426Z,2.03
2019-03-06T15:39:02.868Z,1.63
2019-03-06T15:44:00.145Z,1.60
2019-03-06T15:48:56.139Z,1.93
2019-03-06T15:53:52.067Z,1.87
2019-03-06T15:58:47.971Z,1.90
2019-03-06T16:03:43.987Z,1.40
2019-03-06T16:08:40.811Z,1.53
2019-03-06T16:13:36.787Z,2.23
2019-03-06T16:18:32.718Z,1.90
2019-03-06T16:23:28.720Z,1.53
2019-03-06T16:28:24.698Z,1.80
2019-03-06T16:33:22.597Z,1.60
2019-03-06T16:38:18.718Z,1.63
2019-03-06T16:43:14.647Z,1.33
2019-03-06T16:48:10.559Z,1.40
2019-03-06T16:53:10.575Z,1.03
2019-03-06T16:58:06.760Z,1.50
2019-03-06T17:03:06.459Z,1.43
2019-03-06T17:08:02.879Z,1.60
2019-03-06T17:13:02.032Z,1.50
2019-03-06T17:17:59.667Z,1.30
2019-03-06T17:22:56.159Z,1.53
2019-03-06T17:27:53.991Z,1.60
2019-03-06T17:33:24.821Z,2.20
2019-03-06T17:38:22.859Z,1.77
2019-03-06T17:43:19.594Z,1.70
2019-03-06T17:48:15.609Z,1.40
2019-03-06T17:53:12.897Z,1.67
2019-03-06T17:58:09.881Z,1.50
2019-03-06T18:03:08.147Z,2.13
2019-03-06T18:08:04.161Z,1.93
2019-03-06T18:13:00.186Z,2.33
2019-03-06T18:17:57.731Z,2.57
2019-03-06T18:22:55.173Z,2.10
2019-03-06T18:27:51.357Z,1.60
2019-03-06T18:32:47.370Z,2.00
2019-03-06T18:37:43.854Z,1.90
2019-03-06T18:42:39.861Z,1.90
2019-03-06T18:47:35.767Z,1.83
2019-03-06T18:52:31.683Z,1.77
2019-03-06T18:57:27.622Z,2.33
2019-03-06T19:02:23.538Z,2.50
2019-03-06T19:07:19.843Z,1.63
2019-03-06T19:12:15.758Z,2.20
2019-03-06T19:17:11.678Z,1.87
2019-03-06T19:22:07.762Z,1.70
2019-03-06T19:27:03.771Z,1.60
2019-03-06T19:31:59.740Z,1.77
2019-03-06T19:36:55.667Z,1.83
2019-03-06T19:41:51.627Z,1.80
2019-03-06T19:46:47.542Z,2.30
2019-03-06T19:51:51.324Z,2.10
2019-03-06T19:56:43.150Z,1.97
2019-03-06T20:01:39.115Z,1.87
2019-03-06T20:06:35.450Z,2.13
2019-03-06T20:11:31.406Z,2.13
2019-03-06T20:16:27.996Z,2.03
2019-03-06T20:21:27.925Z,2.27
2019-03-06T20:26:24.230Z,2.03
2019-03-06T20:31:20.782Z,2.60
2019-03-06T20:36:16.671Z,1.93
2019-03-06T20:41:12.774Z,1.53
2019-03-06T20:46:08.883Z,2.17
2019-03-06T20:51:05.143Z,2.07
2019-03-06T20:56:01.080Z,2.13
2019-03-06T21:00:58.301Z,1.97
2019-03-06T21:05:54.417Z,2.10
2019-03-06T21:10:50.326Z,2.00
2019-03-06T21:15:46.234Z,1.80
2019-03-06T21:20:43.491Z,2.10
2019-03-06T21:25:39.548Z,1.93
2019-03-06T21:30:42.832Z,1.93
2019-03-06T21:35:38.941Z,2.63
2019-03-06T21:40:34.867Z,2.10
2019-03-06T21:45:30.779Z,2.40
2019-03-06T21:50:26.810Z,2.83
2019-03-06T21:55:22.718Z,2.57
2019-03-06T22:00:20.139Z,2.43
2019-03-06T22:05:16.326Z,2.50
2019-03-06T22:10:16.312Z,2.87
2019-03-06T22:15:19.767Z,2.53
2019-03-06T22:20:21.589Z,2.60
2019-03-06T22:25:18.447Z,3.17
2019-03-06T22:30:18.886Z,3.07
2019-03-06T22:35:14.996Z,3.00
2019-03-06T22:40:15.174Z,3.20
2019-03-06T22:45:12.986Z,2.93
2019-03-06T22:50:15.798Z,2.90
2019-03-06T22:55:14.078Z,3.10
2019-03-06T23:00:29.234Z,3.40
2019-03-06T23:05:26.760Z,3.00
2019-03-06T23:10:23.091Z,3.03
2019-03-06T23:15:19.003Z,2.73
2019-03-06T23:20:15.773Z,3.13
2019-03-06T23:25:11.882Z,3.80
2019-03-06T23:30:10.207Z,3.70
2019-03-06T23:35:06.519Z,2.80
2019-03-06T23:40:04.826Z,2.97
2019-03-06T23:45:00.851Z,3.00
2019-03-06T23:49:57.512Z,2.60
2019-03-06T23:54:53.535Z,2.43
2019-03-06T23:59:49.497Z,4.10
